Time;durP1;ratioP1;P1;durP2;ratioP2;P2;SDS_P1;SDS_P2;PMS_P1;PMS_P2;Temp;Humidity;BMP_temperature;BMP_pressure;BME280_temperature;BME280_humidity;BME280_pressure;Samples;Min_cycle;Max_cycle;Signal;HPM_P1;HPM_P2
2021/03/13 00:07:53;;;;;;;43.50;16.17;;;;;;;1.37;74.44;97729.83;508093;1101;104335;-40
2021/03/13 00:17:59;;;;;;;41.00;15.00;;;;;;;1.38;74.14;97731.44;508083;1102;104709;-40
2021/03/13 00:28:03;;;;;;;39.20;14.80;;;;;;;1.40;74.13;97719.02;507949;1102;104325;-43
2021/03/13 00:38:09;;;;;;;39.50;14.23;;;;;;;1.36;74.43;97702.17;507997;1101;104322;-40
2021/03/13 00:48:14;;;;;;;41.73;14.57;;;;;;;1.30;73.84;97695.14;507828;1102;104291;-42
2021/03/13 00:58:20;;;;;;;37.43;12.70;;;;;;;1.28;74.44;97684.12;508048;1101;104743;-39
2021/03/13 01:08:24;;;;;;;31.17;12.70;;;;;;;1.29;74.29;97688.33;507990;1102;104417;-42
2021/03/13 01:18:30;;;;;;;26.90;13.00;;;;;;;1.30;73.87;97682.92;508072;1101;104345;-40
2021/03/13 01:28:34;;;;;;;30.20;12.90;;;;;;;1.32;74.09;97673.11;507836;1101;104383;-43
2021/03/13 01:38:39;;;;;;;35.10;12.83;;;;;;;1.31;74.25;97663.69;507740;1101;104386;-40
2021/03/13 01:48:47;;;;;;;40.30;15.87;;;;;;;1.32;74.44;97659.29;508191;1101;104296;-41
2021/03/13 01:58:52;;;;;;;41.63;14.27;;;;;;;1.33;73.91;97661.70;507707;1101;104390;-41
2021/03/13 02:09:02;;;;;;;37.90;13.70;;;;;;;1.39;73.80;97628.85;507866;1102;104338;-39
2021/03/13 02:29:44;;;;;;;24.10;10.50;;;;;;;1.50;74.14;97610.06;508027;1101;104386;-42
2021/03/13 02:39:52;;;;;;;25.43;11.00;;;;;;;1.60;74.38;97607.06;508625;1093;104348;-40
2021/03/13 02:49:58;;;;;;;19.97;8.60;;;;;;;1.72;74.38;97601.09;508243;1101;104335;-40
2021/03/13 03:00:02;;;;;;;21.03;9.13;;;;;;;1.80;74.02;97592.27;507934;1101;104331;-40
2021/03/13 03:10:10;;;;;;;21.45;7.90;;;;;;;1.89;73.69;97577.23;508062;1102;104293;-42
2021/03/13 03:20:18;;;;;;;14.53;6.03;;;;;;;1.95;74.08;97576.45;507960;1101;104338;-42
2021/03/13 03:30:26;;;;;;;13.80;6.50;;;;;;;1.99;73.62;97554.98;508007;1102;104312;-41
2021/03/13 03:40:33;;;;;;;19.73;7.17;;;;;;;2.14;73.61;97539.15;507996;1101;104499;-40
2021/03/13 03:50:39;;;;;;;13.00;6.57;;;;;;;2.17;73.79;97553.59;507959;1102;104399;-42
2021/03/13 04:00:46;;;;;;;15.00;7.63;;;;;;;2.21;73.45;97546.95;508048;1102;104702;-40
2021/03/13 04:10:53;;;;;;;19.00;6.75;;;;;;;2.17;73.31;97512.66;508050;1101;104316;-41
2021/03/13 04:20:57;;;;;;;13.90;6.10;;;;;;;2.18;73.21;97514.27;508179;1102;104332;-40
2021/03/13 04:31:03;;;;;;;10.60;6.10;;;;;;;2.27;73.18;97526.07;508001;1101;104377;-40
2021/03/13 04:41:10;;;;;;;11.83;5.77;;;;;;;2.39;73.51;97527.06;508107;1101;104334;-41
2021/03/13 04:51:18;;;;;;;14.25;5.60;;;;;;;2.53;73.29;97506.14;508076;1102;104335;-40
2021/03/13 05:01:23;;;;;;;11.87;4.70;;;;;;;2.65;73.27;97497.48;507940;1101;104334;-41
2021/03/13 05:11:29;;;;;;;9.60;4.17;;;;;;;2.84;73.24;97518.46;507853;1102;104695;-40
2021/03/13 05:21:34;;;;;;;9.83;4.00;;;;;;;2.90;73.32;97534.13;507772;1101;104677;-43
2021/03/13 05:31:39;;;;;;;11.70;4.40;;;;;;;2.94;73.18;97542.34;508432;1101;104380;-41
2021/03/13 05:41:46;;;;;;;11.13;4.73;;;;;;;2.94;73.66;97537.92;507803;1102;104635;-41
2021/03/13 05:51:51;;;;;;;8.55;4.40;;;;;;;3.05;73.49;97537.25;507928;1102;104376;-40
2021/03/13 06:01:57;;;;;;;11.17;4.53;;;;;;;3.15;73.80;97528.18;508488;1102;104331;-40
2021/03/13 06:12:03;;;;;;;9.20;5.30;;;;;;;3.19;73.53;97531.97;508086;1102;104335;-39
2021/03/13 06:22:08;;;;;;;14.10;6.50;;;;;;;3.28;73.15;97536.73;507922;1101;104678;-41
2021/03/13 06:32:14;;;;;;;13.00;4.67;;;;;;;3.52;73.35;97542.22;507846;1101;104347;-41
2021/03/13 06:42:35;;;;;;;23.20;8.10;;;;;;;3.75;73.30;97544.28;507892;1102;104817;-44
2021/03/13 06:52:40;;;;;;;17.30;7.63;;;;;;;3.94;73.22;97559.82;507834;1101;104322;-40
2021/03/13 07:02:45;;;;;;;21.17;8.10;;;;;;;4.01;72.90;97567.61;507850;1101;104412;-42
2021/03/13 07:12:50;;;;;;;13.87;6.53;;;;;;;4.23;72.67;97579.30;507912;1101;104674;-42
2021/03/13 07:22:56;;;;;;;21.67;7.30;;;;;;;4.47;72.75;97588.14;508048;1101;104335;-40
2021/03/13 07:33:05;;;;;;;17.43;6.93;;;;;;;4.74;71.44;97583.47;507886;1101;104958;-40
2021/03/13 07:43:18;;;;;;;10.75;5.10;;;;;;;6.18;71.66;97601.98;508015;1101;104335;-40
2021/03/13 07:53:23;;;;;;;20.33;8.03;;;;;;;7.66;70.49;97594.30;507960;1101;104709;-42
2021/03/13 08:03:48;;;;;;;23.30;9.30;;;;;;;8.43;69.92;97606.13;507955;1102;104328;-42
2021/03/13 08:13:56;;;;;;;18.17;8.50;;;;;;;7.90;67.45;97605.52;507859;1102;104661;-42
2021/03/13 08:24:05;;;;;;;36.37;15.73;;;;;;;7.58;67.26;97601.78;508176;1102;104334;-41
2021/03/13 08:34:39;;;;;;;33.60;17.05;;;;;;;8.03;66.65;97601.77;507938;1101;104676;-40
2021/03/13 08:44:44;;;;;;;14.17;7.97;;;;;;;8.87;63.88;97592.00;508117;1102;104495;-41
2021/03/13 08:54:50;;;;;;;19.77;9.50;;;;;;;9.45;64.23;97605.61;508014;1102;104723;-42
2021/03/13 09:05:01;;;;;;;13.20;7.60;;;;;;;9.32;62.91;97598.09;508081;1102;104256;-44
2021/03/13 09:15:09;;;;;;;15.47;8.87;;;;;;;9.62;62.02;97582.58;507864;1101;104326;-41
2021/03/13 09:25:16;;;;;;;8.47;5.10;;;;;;;9.38;62.91;97582.06;507954;1101;104373;-42
2021/03/13 09:35:25;;;;;;;8.73;5.30;;;;;;;10.07;60.43;97560.28;507876;1102;104703;-41
2021/03/13 09:45:30;;;;;;;8.57;4.90;;;;;;;10.01;60.17;97564.73;508110;1102;104322;-44
2021/03/13 09:55:34;;;;;;;8.40;4.73;;;;;;;9.72;59.58;97540.47;507740;1102;104629;-43
2021/03/13 10:05:40;;;;;;;6.93;3.50;;;;;;;9.37;59.28;97546.17;508008;1101;104312;-42
2021/03/13 10:15:46;;;;;;;10.67;4.27;;;;;;;10.15;58.40;97510.42;507991;1101;104348;-44
2021/03/13 10:25:57;;;;;;;10.07;4.27;;;;;;;9.72;58.55;97513.27;507903;1101;104638;-39
2021/03/13 10:36:02;;;;;;;8.37;4.83;;;;;;;9.88;58.35;97517.61;507886;1101;104326;-41
2021/03/13 10:46:11;;;;;;;5.83;3.53;;;;;;;10.11;57.11;97497.98;508009;1101;104709;-40
2021/03/13 10:56:17;;;;;;;5.57;2.07;;;;;;;9.85;55.87;97478.52;508028;1101;104667;-43
2021/03/13 11:06:32;;;;;;;14.37;3.90;;;;;;;9.91;57.68;97489.91;508089;1101;104651;-41
2021/03/13 11:16:38;;;;;;;5.80;3.20;;;;;;;9.73;57.41;97451.52;508011;1101;104700;-41
2021/03/13 11:26:43;;;;;;;6.30;3.10;;;;;;;9.69;57.34;97458.31;507974;1101;104814;-40
2021/03/13 11:36:49;;;;;;;6.53;3.03;;;;;;;9.75;56.64;97434.38;508010;1102;104650;-41
2021/03/13 11:46:54;;;;;;;5.73;2.90;;;;;;;9.74;56.85;97418.78;507942;1101;104315;-42
2021/03/13 11:56:59;;;;;;;9.23;3.20;;;;;;;9.71;57.99;97422.73;507861;1101;104447;-40
2021/03/13 12:07:04;;;;;;;4.87;2.50;;;;;;;9.83;56.21;97391.64;507803;1101;105391;-42
2021/03/13 12:17:11;;;;;;;9.65;5.30;;;;;;;10.02;57.18;97378.82;507874;1101;104345;-41
2021/03/13 12:27:17;;;;;;;8.60;3.57;;;;;;;9.79;57.02;97366.81;508019;1102;104255;-42
2021/03/13 12:37:22;;;;;;;10.87;4.63;;;;;;;9.83;56.75;97352.05;507785;1102;104390;-41
2021/03/13 12:47:27;;;;;;;11.70;4.30;;;;;;;9.85;56.68;97355.22;508025;1101;104364;-41
2021/03/13 12:57:31;;;;;;;8.00;4.73;;;;;;;9.90;56.87;97341.25;508202;1101;104501;-41
2021/03/13 13:07:40;;;;;;;11.20;5.80;;;;;;;9.97;56.48;97311.99;508042;1101;104345;-42
2021/03/13 13:17:44;;;;;;;10.03;4.90;;;;;;;9.82;56.93;97320.63;507963;1101;104360;-41
2021/03/13 13:27:49;;;;;;;11.27;5.67;;;;;;;9.61;56.31;97313.64;507757;1101;104348;-40
2021/03/13 13:37:55;;;;;;;7.90;4.33;;;;;;;9.44;55.95;97319.07;507895;1101;105510;-41
2021/03/13 13:48:00;;;;;;;10.80;5.40;;;;;;;9.47;56.38;97295.63;507840;1102;104338;-41
2021/03/13 13:58:06;;;;;;;7.90;4.80;;;;;;;9.60;56.20;97290.94;507965;1102;104360;-43
2021/03/13 14:08:10;;;;;;;9.70;3.80;;;;;;;9.67;57.88;97275.66;507950;1101;104367;-41
2021/03/13 14:18:15;;;;;;;9.87;5.00;;;;;;;9.70;57.59;97249.58;507957;1102;104687;-41
2021/03/13 14:28:21;;;;;;;8.77;4.53;;;;;;;9.66;56.62;97230.00;507814;1101;104836;-41
2021/03/13 14:38:26;;;;;;;13.03;5.80;;;;;;;9.65;56.78;97209.14;508016;1102;104396;-43
2021/03/13 14:48:30;;;;;;;16.00;6.03;;;;;;;9.66;56.01;97185.13;508116;1101;104861;-41
2021/03/13 14:58:34;;;;;;;26.15;11.65;;;;;;;9.73;56.44;97177.00;508128;1102;105379;-42
2021/03/13 15:08:39;;;;;;;10.65;4.60;;;;;;;9.61;55.67;97158.73;508286;1102;104370;-46
2021/03/13 15:18:53;;;;;;;15.23;5.70;;;;;;;9.70;56.10;97141.36;508010;1102;105287;-40
2021/03/13 15:28:57;;;;;;;13.37;5.43;;;;;;;9.68;56.06;97129.45;507910;1102;105524;-41
2021/03/13 15:39:02;;;;;;;11.33;5.10;;;;;;;9.60;55.61;97103.58;508013;1101;104634;-41
2021/03/13 15:49:12;;;;;;;9.25;4.60;;;;;;;9.53;55.31;97095.91;508017;1102;104353;-40
2021/03/13 15:59:17;;;;;;;12.17;5.07;;;;;;;9.34;56.11;97081.61;508237;1102;104714;-43
2021/03/13 16:09:22;;;;;;;17.70;7.60;;;;;;;9.20;56.66;97081.28;507988;1102;104664;-41
2021/03/13 16:19:35;;;;;;;15.93;6.60;;;;;;;9.01;56.83;97062.52;507912;1102;104451;-41
2021/03/13 16:29:40;;;;;;;16.27;7.97;;;;;;;8.94;55.82;97043.48;507924;1101;104377;-40
2021/03/13 16:39:45;;;;;;;17.25;8.35;;;;;;;8.78;56.87;97039.20;508185;1101;104377;-42
2021/03/13 16:49:57;;;;;;;15.97;7.70;;;;;;;8.72;56.27;97040.21;507875;1101;104335;-42
2021/03/13 17:00:02;;;;;;;18.85;9.20;;;;;;;8.59;56.11;97050.17;508139;1102;104338;-41
2021/03/13 17:10:09;;;;;;;19.13;9.30;;;;;;;8.55;55.28;97049.10;507973;1101;104481;-40
2021/03/13 17:20:23;;;;;;;36.17;16.17;;;;;;;8.41;56.29;97052.42;508070;1102;104338;-40
2021/03/13 17:30:28;;;;;;;25.43;9.87;;;;;;;8.47;54.83;97069.84;507882;1102;104370;-41
2021/03/13 17:40:32;;;;;;;23.97;9.13;;;;;;;8.65;54.91;97063.38;507995;1102;104334;-41
2021/03/13 17:50:43;;;;;;;27.27;12.23;;;;;;;8.76;55.08;97078.20;508159;1102;104380;-41
2021/03/13 18:00:48;;;;;;;20.43;10.97;;;;;;;8.80;55.89;97072.16;508051;1102;104392;-41
2021/03/13 18:10:53;;;;;;;23.50;9.93;;;;;;;8.71;55.92;97075.52;508055;1101;104329;-41
2021/03/13 18:21:07;;;;;;;23.80;11.30;;;;;;;8.58;56.42;97058.34;507949;1101;104309;-43
2021/03/13 18:31:11;;;;;;;26.27;11.90;;;;;;;8.54;57.69;97050.16;507921;1102;104264;-41
2021/03/13 18:41:18;;;;;;;19.90;10.27;;;;;;;8.54;58.26;97049.36;508111;1101;104357;-41
2021/03/13 18:51:31;;;;;;;18.93;9.27;;;;;;;8.53;57.75;97051.20;507977;1100;104979;-42
2021/03/13 19:01:36;;;;;;;19.20;9.53;;;;;;;8.48;58.08;97051.14;507956;1102;104693;-42
2021/03/13 19:12:01;;;;;;;15.33;9.40;;;;;;;8.44;58.41;97055.34;507829;1101;104789;-42
2021/03/13 19:22:04;;;;;;;19.80;10.23;;;;;;;8.46;59.67;97047.19;507894;1101;104309;-42
2021/03/13 19:32:09;;;;;;;16.07;8.73;;;;;;;8.43;60.18;97029.26;508051;1101;104680;-43
2021/03/13 19:42:14;;;;;;;14.57;7.47;;;;;;;8.41;59.51;97037.42;507858;1101;104364;-41
2021/03/13 19:52:20;;;;;;;11.50;5.90;;;;;;;8.44;60.41;97029.00;508013;1102;104715;-44
2021/03/13 20:02:40;;;;;;;10.77;5.73;;;;;;;8.47;60.00;97019.80;508118;1101;104725;-41
2021/03/13 20:12:46;;;;;;;17.73;7.93;;;;;;;8.48;59.91;97032.70;508242;1102;104338;-43
2021/03/13 20:22:51;;;;;;;12.53;5.83;;;;;;;8.49;60.70;97051.94;507999;1101;104454;-43
2021/03/13 20:32:56;;;;;;;9.93;4.93;;;;;;;8.51;61.25;97069.08;507945;1102;104730;-43
2021/03/13 20:43:01;;;;;;;6.43;3.97;;;;;;;8.37;61.86;97057.41;507993;1101;104381;-41
2021/03/13 20:53:07;;;;;;;10.43;4.33;;;;;;;8.36;62.32;97044.50;508012;1101;104306;-40
2021/03/13 21:03:12;;;;;;;10.90;5.90;;;;;;;8.33;62.18;97056.30;507918;1101;104610;-44
2021/03/13 21:13:18;;;;;;;10.47;5.40;;;;;;;8.29;62.79;97061.29;507918;1101;104380;-42
2021/03/13 21:23:24;;;;;;;10.43;4.63;;;;;;;8.22;62.87;97087.02;507866;1102;104312;-40
2021/03/13 21:43:48;;;;;;;25.50;10.43;;;;;;;6.97;67.29;97143.31;507965;1102;104254;-42
2021/03/13 21:53:52;;;;;;;13.27;5.03;;;;;;;6.37;69.10;97128.25;508053;1101;104338;-40
2021/03/13 22:03:57;;;;;;;5.00;2.73;;;;;;;6.17;68.61;97131.38;508035;1101;104350;-43
2021/03/13 22:14:02;;;;;;;19.27;6.80;;;;;;;6.10;69.97;97117.59;507866;1101;104817;-41
2021/03/13 22:24:12;;;;;;;5.47;1.97;;;;;;;6.06;70.16;97074.49;508218;1101;104335;-41
2021/03/13 22:34:17;;;;;;;8.13;3.27;;;;;;;5.99;69.58;97073.86;508051;1102;104334;-41
2021/03/13 22:44:22;;;;;;;27.50;9.97;;;;;;;5.83;69.69;97067.53;507802;1101;104338;-42
2021/03/13 22:54:31;;;;;;;6.73;3.10;;;;;;;5.76;69.82;97093.92;507951;1101;104661;-41
2021/03/13 23:04:36;;;;;;;11.97;5.30;;;;;;;5.68;70.56;97104.80;507970;1101;104392;-42
2021/03/13 23:14:41;;;;;;;36.30;12.67;;;;;;;5.45;71.00;97087.34;507854;1102;104434;-41
2021/03/13 23:24:57;;;;;;;24.03;9.80;;;;;;;5.28;71.18;97085.69;508050;1101;104763;-41
2021/03/13 23:35:02;;;;;;;11.35;5.05;;;;;;;5.24;71.68;97065.20;508075;1101;104345;-42
2021/03/13 23:45:10;;;;;;;8.50;4.70;;;;;;;5.27;71.63;97068.38;507959;1102;105394;-41
2021/03/13 23:55:23;;;;;;;9.83;5.47;;;;;;;5.12;71.72;97079.36;508047;1102;104970;-41
